Time;durP1;ratioP1;P1;durP2;ratioP2;P2;SDS_P1;SDS_P2;PMS_P1;PMS_P2;Temp;Humidity;BMP_temperature;BMP_pressure;BME280_temperature;BME280_humidity;BME280_pressure;Samples;Min_cycle;Max_cycle;Signal;HPM_P1;HPM_P2
2022/07/08 00:00:19;;;;;;;12.13;4.80;;;17.60;99.90;;;;;;5041246;28;20445;-51
2022/07/08 00:02:47;;;;;;;5.00;4.60;;;17.70;99.90;;;;;;5041292;28;20468;-50
2022/07/08 00:05:15;;;;;;;5.67;5.07;;;17.60;99.90;;;;;;5041844;28;20503;-52
2022/07/08 00:07:42;;;;;;;5.13;4.73;;;17.70;99.90;;;;;;5041361;28;20433;-47
2022/07/08 00:10:10;;;;;;;8.43;5.10;;;17.80;99.90;;;;;;5041498;28;20458;-48
2022/07/08 00:12:37;;;;;;;5.10;4.70;;;17.80;99.90;;;;;;5040727;28;20638;-48
2022/07/08 00:15:05;;;;;;;6.30;5.80;;;17.80;99.90;;;;;;5041072;28;20435;-47
2022/07/08 00:17:33;;;;;;;5.10;4.70;;;17.90;99.90;;;;;;5040034;28;20834;-47
2022/07/08 00:20:00;;;;;;;6.80;5.73;;;18.00;99.90;;;;;;5041647;28;20463;-47
2022/07/08 00:22:27;;;;;;;4.80;4.40;;;18.00;99.90;;;;;;5040948;28;20495;-50
2022/07/08 00:24:54;;;;;;;7.10;5.47;;;17.80;99.90;;;;;;5041615;28;20404;-49
2022/07/08 00:27:21;;;;;;;6.50;5.90;;;17.70;99.90;;;;;;5040913;28;20433;-49
2022/07/08 00:29:49;;;;;;;6.13;5.53;;;17.90;99.90;;;;;;5041455;28;20523;-48
2022/07/08 00:32:16;;;;;;;7.90;4.90;;;18.10;99.90;;;;;;5041038;28;20433;-46
2022/07/08 00:34:49;;;;;;;5.87;5.37;;;18.20;99.90;;;;;;5041185;28;20429;-46
2022/07/08 00:37:17;;;;;;;6.83;6.00;;;18.30;99.90;;;;;;5040839;28;20810;-49
2022/07/08 00:39:44;;;;;;;5.37;4.97;;;18.40;99.90;;;;;;5040751;28;20453;-48
2022/07/08 00:42:12;;;;;;;4.73;4.33;;;18.20;99.90;;;;;;5041110;28;20504;-50
2022/07/08 00:44:39;;;;;;;5.17;4.80;;;18.30;99.90;;;;;;5041438;28;20420;-45
2022/07/08 00:47:06;;;;;;;5.40;4.90;;;18.20;99.90;;;;;;5041255;28;20531;-46
2022/07/08 00:49:34;;;;;;;6.23;5.63;;;18.30;99.90;;;;;;5040771;28;20460;-50
2022/07/08 00:52:01;;;;;;;6.27;5.63;;;18.30;99.90;;;;;;5040771;28;20780;-51
2022/07/08 00:54:28;;;;;;;6.53;6.03;;;18.40;99.90;;;;;;5040386;28;20449;-49
2022/07/08 00:56:57;;;;;;;7.23;6.47;;;18.50;99.90;;;;;;5040626;28;20841;-53
2022/07/08 00:59:25;;;;;;;6.50;5.90;;;18.40;99.90;;;;;;5040250;28;20449;-47
2022/07/08 01:01:52;;;;;;;6.87;5.23;;;18.30;99.90;;;;;;5040686;28;20507;-48
2022/07/08 01:04:19;;;;;;;6.80;6.10;;;18.30;99.90;;;;;;5040540;28;20635;-49
2022/07/08 01:06:47;;;;;;;6.83;6.27;;;18.50;99.90;;;;;;5040667;28;20488;-46
2022/07/08 01:09:14;;;;;;;5.57;5.07;;;18.50;99.90;;;;;;5040526;28;20491;-49
2022/07/08 01:11:45;;;;;;;6.27;5.67;;;18.50;99.90;;;;;;5040468;28;20444;-48
2022/07/08 01:14:14;;;;;;;6.80;6.10;;;18.20;99.90;;;;;;5040341;28;20490;-50
2022/07/08 01:16:42;;;;;;;6.00;5.60;;;18.00;99.90;;;;;;5040166;28;20486;-46
2022/07/08 01:19:09;;;;;;;7.60;6.90;;;18.00;99.90;;;;;;5041278;28;20449;-51
2022/07/08 01:21:37;;;;;;;6.13;5.53;;;18.00;99.90;;;;;;5041151;28;20620;-51
2022/07/08 01:24:04;;;;;;;8.47;5.97;;;17.90;99.90;;;;;;5040295;28;20455;-53
2022/07/08 01:26:32;;;;;;;8.50;7.70;;;17.70;99.90;;;;;;5040175;28;20441;-55
2022/07/08 01:28:59;;;;;;;7.20;6.60;;;17.60;99.90;;;;;;5040257;28;20449;-46
2022/07/08 01:31:27;;;;;;;8.67;7.93;;;17.60;99.90;;;;;;5040183;28;20434;-47
2022/07/08 01:33:54;;;;;;;8.33;7.57;;;17.50;99.90;;;;;;5039920;28;20493;-51
2022/07/08 01:36:21;;;;;;;8.10;7.50;;;17.50;99.90;;;;;;5039815;28;20437;-47
2022/07/08 01:38:48;;;;;;;7.27;6.57;;;17.30;99.90;;;;;;5040172;28;20469;-53
2022/07/08 01:41:16;;;;;;;7.93;7.13;;;17.30;99.90;;;;;;5043354;28;20429;-48
2022/07/08 01:43:44;;;;;;;8.30;7.60;;;17.20;99.90;;;;;;5044021;28;20427;-47
2022/07/08 01:46:12;;;;;;;9.87;8.73;;;17.20;99.90;;;;;;5040081;28;20432;-48
2022/07/08 01:48:39;;;;;;;9.40;8.50;;;17.10;99.90;;;;;;5040170;28;20433;-49
2022/07/08 01:51:06;;;;;;;8.73;7.93;;;17.10;99.90;;;;;;5039605;28;20439;-48
2022/07/08 01:53:34;;;;;;;9.10;8.20;;;17.10;99.90;;;;;;5039797;28;20441;-51
2022/07/08 01:56:01;;;;;;;9.37;8.47;;;17.30;99.90;;;;;;5039659;28;20437;-47
2022/07/08 01:58:28;;;;;;;9.73;8.17;;;17.20;99.90;;;;;;5039718;28;20707;-47
2022/07/08 02:00:57;;;;;;;11.10;10.03;;;17.10;99.90;;;;;;5039711;28;20441;-47
2022/07/08 02:03:25;;;;;;;8.10;7.40;;;17.10;99.90;;;;;;5039619;28;20434;-52
2022/07/08 02:05:52;;;;;;;9.13;8.23;;;17.20;99.90;;;;;;5039476;28;20453;-47
2022/07/08 02:08:20;;;;;;;9.47;8.53;;;17.40;99.90;;;;;;5039669;28;20440;-47
2022/07/08 02:13:32;;;;;;;9.27;8.47;;;17.20;99.90;;;;;;5039363;28;20456;-49
2022/07/08 02:16:00;;;;;;;8.30;7.57;;;17.20;99.90;;;;;;5039482;28;20845;-46
2022/07/08 02:18:27;;;;;;;8.50;7.67;;;17.20;99.90;;;;;;5039573;28;20629;-48
2022/07/08 02:20:55;;;;;;;8.73;8.07;;;17.40;99.90;;;;;;5039350;28;20455;-48
2022/07/08 02:23:22;;;;;;;8.67;7.97;;;17.20;99.90;;;;;;5039954;28;20475;-50
2022/07/08 02:25:49;;;;;;;8.13;7.33;;;17.20;99.90;;;;;;5039470;28;20822;-46
2022/07/08 02:28:16;;;;;;;8.77;7.97;;;17.20;99.90;;;;;;5039743;28;20445;-49
2022/07/08 02:30:43;;;;;;;7.20;6.60;;;17.20;99.90;;;;;;5039200;28;20469;-47
2022/07/08 02:33:12;;;;;;;8.30;7.50;;;17.30;99.90;;;;;;5039845;28;20416;-48
2022/07/08 02:35:39;;;;;;;8.90;7.70;;;17.20;99.90;;;;;;5038876;28;20760;-46
2022/07/08 02:38:06;;;;;;;8.20;7.40;;;17.20;99.90;;;;;;5039212;28;20492;-54
2022/07/08 02:40:33;;;;;;;7.30;6.60;;;17.40;99.90;;;;;;5042201;28;20460;-47
2022/07/08 02:43:01;;;;;;;8.67;7.80;;;17.30;99.90;;;;;;5043471;28;21011;-53
2022/07/08 02:45:28;;;;;;;7.67;6.93;;;17.30;99.90;;;;;;5043718;28;20443;-48
2022/07/08 02:47:56;;;;;;;9.40;7.43;;;17.40;99.90;;;;;;5043298;28;20436;-47
2022/07/08 02:50:23;;;;;;;9.60;8.43;;;17.40;99.90;;;;;;5043433;28;20461;-46
2022/07/08 02:52:51;;;;;;;8.33;7.63;;;17.40;99.90;;;;;;5043000;28;20443;-47
2022/07/08 02:55:18;;;;;;;8.17;7.47;;;17.30;99.90;;;;;;5043031;28;20464;-52
2022/07/08 02:57:45;;;;;;;9.30;8.30;;;17.30;99.90;;;;;;5042990;28;20476;-47
2022/07/08 03:00:13;;;;;;;9.43;8.53;;;17.10;99.90;;;;;;5043169;28;20671;-48
2022/07/08 03:02:41;;;;;;;9.47;8.60;;;16.90;99.90;;;;;;5042690;28;20484;-49
2022/07/08 03:05:08;;;;;;;9.60;8.80;;;16.70;99.90;;;;;;5042736;28;20433;-50
2022/07/08 03:07:35;;;;;;;10.47;9.57;;;16.70;99.90;;;;;;5042757;28;20662;-48
2022/07/08 03:10:02;;;;;;;13.13;8.40;;;16.80;99.90;;;;;;5042543;28;20569;-45
2022/07/08 03:12:29;;;;;;;9.70;8.80;;;16.90;99.90;;;;;;5042715;28;20436;-49
2022/07/08 03:14:56;;;;;;;9.00;8.10;;;16.90;99.90;;;;;;5043214;28;20442;-49
2022/07/08 03:17:23;;;;;;;10.13;9.20;;;16.90;99.90;;;;;;5043103;28;20812;-49
2022/07/08 03:19:51;;;;;;;9.33;8.53;;;17.00;99.90;;;;;;5042651;28;20449;-48
2022/07/08 03:22:18;;;;;;;9.93;9.03;;;17.00;99.90;;;;;;5042515;28;20438;-52
2022/07/08 03:24:45;;;;;;;9.97;9.13;;;17.00;99.90;;;;;;5042476;28;20429;-47
2022/07/08 03:27:12;;;;;;;9.40;8.60;;;17.00;99.90;;;;;;5042116;28;20467;-52
2022/07/08 03:29:39;;;;;;;8.57;7.73;;;17.00;99.90;;;;;;5042610;28;20480;-50
2022/07/08 03:32:07;;;;;;;8.93;8.03;;;17.00;99.90;;;;;;5043446;28;20426;-51
2022/07/08 03:34:34;;;;;;;9.30;8.43;;;17.10;99.90;;;;;;5045374;28;20432;-50
2022/07/08 03:37:02;;;;;;;8.30;7.50;;;17.30;99.90;;;;;;5047541;28;20435;-46
2022/07/08 03:39:30;;;;;;;8.23;7.53;;;17.40;99.90;;;;;;5063202;22;20553;-51
2022/07/08 03:41:57;;;;;;;8.60;7.80;;;17.40;99.90;;;;;;5042760;28;20779;-49
2022/07/08 03:44:24;;;;;;;7.60;6.90;;;17.30;99.90;;;;;;5042643;28;20768;-49
2022/07/08 03:46:51;;;;;;;8.00;7.40;;;17.20;99.90;;;;;;5042799;28;20517;-48
2022/07/08 03:49:19;;;;;;;8.93;8.23;;;17.10;99.90;;;;;;5042086;28;20460;-55
2022/07/08 03:51:46;;;;;;;7.40;6.67;;;17.00;99.90;;;;;;5042311;28;20441;-52
2022/07/08 03:54:13;;;;;;;7.80;7.20;;;17.00;99.90;;;;;;5042554;28;20447;-53
2022/07/08 03:56:41;;;;;;;8.73;8.03;;;16.80;99.90;;;;;;5042482;28;20779;-53
2022/07/08 03:59:08;;;;;;;9.17;8.00;;;16.80;99.90;;;;;;5042063;28;20668;-50
2022/07/08 04:01:35;;;;;;;8.77;7.97;;;16.70;99.90;;;;;;5044638;28;20437;-54
2022/07/08 04:04:03;;;;;;;8.60;7.80;;;16.70;99.90;;;;;;5043025;28;20447;-49
2022/07/08 04:06:30;;;;;;;8.93;8.03;;;16.60;99.90;;;;;;5042191;28;20430;-46
2022/07/08 04:08:57;;;;;;;9.30;8.40;;;16.60;99.90;;;;;;5042117;28;20438;-54
2022/07/08 04:11:24;;;;;;;8.83;8.13;;;16.50;99.90;;;;;;5042307;28;20438;-47
2022/07/08 04:13:51;;;;;;;9.47;8.57;;;16.40;99.90;;;;;;5042168;28;20447;-47
2022/07/08 04:16:18;;;;;;;9.57;8.57;;;16.40;99.90;;;;;;5041278;28;20774;-53
2022/07/08 04:18:46;;;;;;;8.70;8.00;;;16.40;99.90;;;;;;5041512;28;20493;-51
2022/07/08 04:21:13;;;;;;;8.00;7.20;;;16.30;99.90;;;;;;5042051;28;20448;-47
2022/07/08 04:23:41;;;;;;;7.97;7.17;;;16.20;99.90;;;;;;5041665;28;20763;-55
2022/07/08 04:26:08;;;;;;;8.13;7.33;;;16.10;99.90;;;;;;5041434;28;20438;-52
2022/07/08 04:28:35;;;;;;;9.40;8.50;;;16.10;99.90;;;;;;5041689;28;20474;-52
2022/07/08 04:31:03;;;;;;;7.40;6.80;;;16.00;99.90;;;;;;5040876;28;20459;-50
2022/07/08 04:33:30;;;;;;;7.90;7.17;;;16.00;99.90;;;;;;5041834;28;20641;-52
2022/07/08 04:35:57;;;;;;;7.57;6.87;;;16.00;99.90;;;;;;5041298;28;20440;-49
2022/07/08 04:38:24;;;;;;;7.27;6.67;;;16.00;99.90;;;;;;5041324;28;20535;-50
2022/07/08 04:40:52;;;;;;;7.63;6.80;;;16.00;99.90;;;;;;5041309;28;20428;-51
2022/07/08 04:43:20;;;;;;;7.27;6.53;;;16.10;99.90;;;;;;5041391;28;20440;-53
2022/07/08 04:45:48;;;;;;;5.87;5.20;;;16.10;99.90;;;;;;5041664;28;20422;-52
2022/07/08 04:48:15;;;;;;;10.00;5.23;;;16.20;99.90;;;;;;5041758;28;20785;-49
2022/07/08 04:50:42;;;;;;;5.87;5.23;;;16.30;99.90;;;;;;5040268;28;20793;-51
2022/07/08 04:53:09;;;;;;;6.87;6.13;;;16.40;99.90;;;;;;5041334;28;20440;-47
2022/07/08 04:55:37;;;;;;;9.07;5.90;;;16.40;99.90;;;;;;5023016;28;20756;-51
2022/07/08 04:58:05;;;;;;;6.23;5.63;;;16.50;99.90;;;;;;5041383;28;20479;-51
2022/07/08 05:00:33;;;;;;;5.50;5.10;;;16.60;99.90;;;;;;5040400;28;20481;-51
2022/07/08 05:03:01;;;;;;;5.00;4.60;;;16.70;99.90;;;;;;5040492;28;20432;-51
2022/07/08 05:05:30;;;;;;;5.67;5.00;;;16.70;99.90;;;;;;5041239;28;20631;-49
2022/07/08 05:07:58;;;;;;;10.23;7.13;;;16.90;99.90;;;;;;5040607;28;20440;-50
2022/07/08 05:10:27;;;;;;;5.67;4.93;;;17.10;99.90;;;;;;5040586;28;20453;-50
2022/07/08 05:12:55;;;;;;;5.87;4.77;;;17.10;99.90;;;;;;5040227;28;20440;-53
2022/07/08 05:15:23;;;;;;;5.47;4.97;;;17.20;99.90;;;;;;5040699;28;20412;-50
2022/07/08 05:17:52;;;;;;;6.30;5.37;;;17.20;99.90;;;;;;5040551;28;20469;-48
2022/07/08 05:20:20;;;;;;;4.70;4.30;;;17.20;99.90;;;;;;5041135;28;20476;-52
2022/07/08 05:22:48;;;;;;;3.60;3.30;;;17.30;99.90;;;;;;5040607;28;20437;-50
2022/07/08 05:25:15;;;;;;;6.33;4.70;;;17.30;99.90;;;;;;5040663;28;20785;-49
2022/07/08 05:27:42;;;;;;;5.43;4.93;;;17.50;99.90;;;;;;5040678;28;20484;-52
2022/07/08 05:30:11;;;;;;;5.47;4.97;;;17.50;99.90;;;;;;5040810;28;20636;-51
2022/07/08 05:32:40;;;;;;;4.87;4.17;;;17.50;99.90;;;;;;5040032;28;20652;-48
2022/07/08 05:35:09;;;;;;;5.30;4.63;;;17.50;99.90;;;;;;5040950;28;20638;-51
2022/07/08 05:37:38;;;;;;;4.90;4.40;;;17.40;99.90;;;;;;5040025;28;20437;-49
2022/07/08 05:40:10;;;;;;;5.37;4.87;;;17.20;99.90;;;;;;5039797;28;20482;-51
2022/07/08 05:42:37;;;;;;;6.30;5.13;;;17.10;99.90;;;;;;5039793;28;20433;-53
2022/07/08 05:45:06;;;;;;;5.67;4.27;;;16.90;99.90;;;;;;5040007;28;20476;-51
2022/07/08 05:47:34;;;;;;;8.17;6.90;;;16.80;99.90;;;;;;5039898;28;20440;-48
2022/07/08 05:50:01;;;;;;;6.00;5.40;;;16.70;99.90;;;;;;5040607;28;20449;-49
2022/07/08 05:52:29;;;;;;;8.43;6.87;;;16.70;99.90;;;;;;5040292;28;20620;-49
2022/07/08 05:54:56;;;;;;;11.10;7.70;;;16.70;99.90;;;;;;5040552;28;20484;-50
2022/07/08 05:57:23;;;;;;;8.70;7.90;;;16.80;99.90;;;;;;5040014;28;20479;-51
2022/07/08 05:59:50;;;;;;;7.90;7.20;;;17.00;99.90;;;;;;5039917;28;20541;-51
2022/07/08 06:02:18;;;;;;;6.53;5.93;;;17.10;99.90;;;;;;5040244;28;20476;-50
2022/07/08 06:04:45;;;;;;;7.13;6.17;;;17.10;99.90;;;;;;5039803;28;20430;-47
2022/07/08 06:07:13;;;;;;;9.20;8.27;;;17.30;99.90;;;;;;5040148;28;20496;-55
2022/07/08 06:09:40;;;;;;;8.53;7.27;;;17.50;99.90;;;;;;5039956;28;20454;-47
2022/07/08 06:12:08;;;;;;;14.17;7.20;;;17.40;99.90;;;;;;5039851;28;20818;-53
2022/07/08 06:14:35;;;;;;;8.77;6.33;;;17.20;99.90;;;;;;5023284;28;20444;-50
2022/07/08 06:17:03;;;;;;;12.83;8.20;;;16.90;99.90;;;;;;5043955;28;20787;-48
2022/07/08 06:19:30;;;;;;;11.20;8.90;;;16.80;99.90;;;;;;5044045;28;20501;-48
2022/07/08 06:21:57;;;;;;;13.07;8.13;;;17.00;99.90;;;;;;5044317;28;20430;-54
2022/07/08 06:24:24;;;;;;;19.47;9.13;;;17.20;99.90;;;;;;5043930;28;20443;-51
2022/07/08 06:26:52;;;;;;;13.80;7.07;;;17.30;99.90;;;;;;5043831;28;20536;-49
2022/07/08 06:29:19;;;;;;;9.63;6.00;;;17.50;99.90;;;;;;5043499;28;20734;-49
2022/07/08 06:31:47;;;;;;;16.60;8.00;;;17.40;99.90;;;;;;5044412;28;20449;-52
2022/07/08 06:34:14;;;;;;;9.27;6.07;;;17.50;99.90;;;;;;5044640;28;20775;-50
2022/07/08 06:36:41;;;;;;;7.50;5.37;;;17.70;99.90;;;;;;5043748;28;20671;-50
2022/07/08 06:39:08;;;;;;;9.37;5.23;;;17.90;99.90;;;;;;5042941;28;20473;-52
2022/07/08 06:41:36;;;;;;;9.00;6.93;;;18.00;99.90;;;;;;5043615;28;20411;-50
2022/07/08 06:44:04;;;;;;;10.63;5.60;;;17.90;99.90;;;;;;5043904;28;20500;-51
2022/07/08 06:46:32;;;;;;;9.30;6.93;;;18.10;99.90;;;;;;5042941;28;20440;-48
2022/07/08 06:48:59;;;;;;;14.40;6.00;;;18.30;99.90;;;;;;5043149;28;20674;-48
2022/07/08 06:51:27;;;;;;;5.33;4.83;;;18.50;99.90;;;;;;5043361;28;20449;-50
2022/07/08 06:56:40;;;;;;;11.00;6.27;;;18.40;99.90;;;;;;5043258;28;20486;-47
2022/07/08 06:59:07;;;;;;;10.47;4.90;;;18.50;99.90;;;;;;5042827;28;20484;-47
2022/07/08 07:01:35;;;;;;;9.37;6.93;;;18.50;99.90;;;;;;5043209;28;20758;-50
2022/07/08 07:04:02;;;;;;;6.00;4.80;;;18.40;99.90;;;;;;5043220;28;20455;-53
2022/07/08 07:06:30;;;;;;;6.60;4.47;;;18.40;99.90;;;;;;5043132;28;20432;-50
2022/07/08 07:08:58;;;;;;;6.40;4.57;;;18.60;99.90;;;;;;5042726;28;20427;-49
2022/07/08 07:11:25;;;;;;;9.50;4.70;;;18.60;99.90;;;;;;5042918;28;20432;-47
2022/07/08 07:13:52;;;;;;;12.60;5.93;;;18.50;99.90;;;;;;5042740;28;20500;-47
2022/07/08 07:16:19;;;;;;;7.60;6.80;;;18.40;99.90;;;;;;5042486;28;20628;-49
2022/07/08 07:18:47;;;;;;;8.77;5.63;;;18.10;99.90;;;;;;5042815;28;20540;-52
2022/07/08 07:21:14;;;;;;;12.00;5.83;;;17.80;99.90;;;;;;5042289;28;20572;-55
2022/07/08 07:23:41;;;;;;;9.97;6.00;;;17.70;99.90;;;;;;5042586;28;20486;-51
2022/07/08 07:26:08;;;;;;;10.13;6.10;;;17.80;99.90;;;;;;5042021;28;20429;-50
2022/07/08 07:28:35;;;;;;;15.63;7.40;;;17.90;99.90;;;;;;5042795;28;20448;-49
2022/07/08 07:31:03;;;;;;;7.63;6.70;;;18.00;99.90;;;;;;5042818;28;20449;-56
2022/07/08 07:33:30;;;;;;;11.70;5.57;;;18.10;99.90;;;;;;5042248;28;20441;-49
2022/07/08 07:35:57;;;;;;;8.47;7.60;;;18.10;99.90;;;;;;5041966;28;20445;-51
2022/07/08 07:38:25;;;;;;;13.43;7.20;;;17.90;99.90;;;;;;5042437;28;20512;-47
2022/07/08 07:40:52;;;;;;;6.83;6.10;;;17.80;99.90;;;;;;5041942;28;20671;-49
2022/07/08 07:43:20;;;;;;;6.73;5.97;;;17.80;99.90;;;;;;5042202;28;20437;-47
2022/07/08 07:45:47;;;;;;;7.00;6.30;;;17.90;99.90;;;;;;5041775;28;20468;-50
2022/07/08 07:48:15;;;;;;;6.97;5.73;;;18.10;99.90;;;;;;5041583;28;20456;-47
2022/07/08 07:50:42;;;;;;;12.10;6.23;;;18.30;99.90;;;;;;5041479;28;20448;-46
2022/07/08 07:53:10;;;;;;;8.73;6.53;;;18.30;99.90;;;;;;5041907;28;20433;-53
2022/07/08 07:55:38;;;;;;;11.13;6.30;;;18.10;99.90;;;;;;5042045;28;20441;-52
2022/07/08 07:58:05;;;;;;;17.77;6.30;;;17.90;99.90;;;;;;5042094;28;20433;-48
2022/07/08 08:00:32;;;;;;;13.40;6.17;;;17.90;99.90;;;;;;5041254;28;20651;-47
2022/07/08 08:03:00;;;;;;;10.90;5.90;;;17.80;99.90;;;;;;5041723;28;20479;-49
2022/07/08 08:05:27;;;;;;;7.83;4.70;;;17.70;99.90;;;;;;5041595;28;20440;-50
2022/07/08 08:07:54;;;;;;;8.30;6.30;;;17.70;99.90;;;;;;5041347;28;20780;-49
2022/07/08 08:10:21;;;;;;;9.83;5.80;;;17.70;99.90;;;;;;5042147;28;20498;-51
2022/07/08 08:12:49;;;;;;;7.27;6.33;;;17.70;99.90;;;;;;5041532;28;20434;-51
2022/07/08 08:15:16;;;;;;;6.13;4.73;;;17.80;99.90;;;;;;5041702;28;20769;-51
2022/07/08 08:17:43;;;;;;;7.60;4.47;;;18.00;99.90;;;;;;5041850;28;20460;-53
2022/07/08 08:20:12;;;;;;;7.70;4.47;;;18.80;99.90;;;;;;5041345;28;20504;-55
2022/07/08 08:22:40;;;;;;;7.17;3.90;;;19.60;99.90;;;;;;5041246;28;20479;-54
2022/07/08 08:25:28;;;;;;;5.10;3.60;;;20.10;99.90;;;;;;5041507;28;20421;-49
2022/07/08 08:27:56;;;;;;;5.70;4.10;;;20.50;99.90;;;;;;5041560;28;20739;-48
2022/07/08 08:30:25;;;;;;;8.47;3.80;;;21.40;99.90;;;;;;5042093;28;20474;-53
2022/07/08 08:32:52;;;;;;;6.23;4.13;;;22.70;99.90;;;;;;5042003;28;20494;-49
2022/07/08 08:35:20;;;;;;;6.13;3.50;;;23.50;99.90;;;;;;5041703;28;20409;-49
2022/07/08 08:37:47;;;;;;;8.43;3.40;;;22.70;99.90;;;;;;5040196;28;20432;-53
2022/07/08 08:40:15;;;;;;;6.10;3.20;;;22.00;99.90;;;;;;5040777;28;20583;-51
2022/07/08 08:42:43;;;;;;;9.30;5.57;;;21.70;99.90;;;;;;5041049;28;20454;-54
2022/07/08 08:45:11;;;;;;;3.33;3.03;;;21.70;99.90;;;;;;5040649;28;20417;-48
2022/07/08 08:47:38;;;;;;;7.63;3.67;;;21.40;99.90;;;;;;5040459;28;20597;-49
2022/07/08 08:52:55;;;;;;;3.97;3.20;;;21.10;99.90;;;;;;5040667;28;20440;-49
2022/07/08 08:55:27;;;;;;;7.77;4.00;;;21.10;99.90;;;;;;5040899;28;20625;-51
2022/07/08 08:58:05;;;;;;;17.30;3.80;;;21.20;99.90;;;;;;5040713;28;20409;-45
2022/07/08 09:00:33;;;;;;;4.20;3.30;;;21.50;99.90;;;;;;5040994;28;20610;-49
2022/07/08 09:03:01;;;;;;;6.53;3.60;;;21.70;99.90;;;;;;5040901;28;20436;-49
2022/07/08 09:05:30;;;;;;;5.37;3.20;;;21.80;99.90;;;;;;5040715;28;20454;-51
2022/07/08 09:07:57;;;;;;;7.90;5.13;;;21.50;99.90;;;;;;5040620;28;20612;-49
2022/07/08 09:10:26;;;;;;;5.03;3.87;;;21.30;99.90;;;;;;5040034;28;20488;-49
2022/07/08 09:13:04;;;;;;;3.33;2.90;;;21.70;99.90;;;;;;5041229;28;20436;-49
2022/07/08 09:15:40;;;;;;;10.40;3.93;;;22.50;99.90;;;;;;5040197;28;20675;-51
2022/07/08 09:18:10;;;;;;;4.57;3.60;;;25.10;99.90;;;;;;5040989;28;20703;-49
2022/07/08 09:20:46;;;;;;;3.10;2.80;;;28.70;99.90;;;;;;5040373;28;20540;-52
2022/07/08 09:23:31;;;;;;;4.37;2.97;;;29.90;99.90;;;;;;5040646;28;20426;-51
2022/07/08 09:26:05;;;;;;;3.97;3.37;;;30.10;99.90;;;;;;5040608;28;20448;-48
2022/07/08 09:28:35;;;;;;;4.43;3.17;;;30.80;99.90;;;;;;5040750;28;20448;-51
2022/07/08 09:31:08;;;;;;;3.10;2.67;;;31.40;99.90;;;;;;5040107;28;20804;-51
2022/07/08 09:33:36;;;;;;;3.10;1.90;;;31.20;98.80;;;;;;5039901;28;20441;-51
2022/07/08 09:36:05;;;;;;;5.03;2.67;;;29.70;99.90;;;;;;5039639;28;20425;-53
2022/07/08 09:38:35;;;;;;;2.97;2.63;;;27.70;99.90;;;;;;5039481;28;20430;-53
2022/07/08 09:41:09;;;;;;;3.33;3.03;;;26.00;99.90;;;;;;5051581;22;20510;-56
2022/07/08 09:43:44;;;;;;;4.93;2.50;;;25.70;99.90;;;;;;5039435;28;20396;-55
2022/07/08 09:46:12;;;;;;;3.67;2.50;;;25.70;99.90;;;;;;5039401;28;20405;-57
2022/07/08 09:48:40;;;;;;;2.63;2.10;;;25.60;99.90;;;;;;5039173;28;20753;-57
2022/07/08 09:51:08;;;;;;;4.93;2.80;;;25.20;99.90;;;;;;5039054;28;20453;-56
2022/07/08 09:53:40;;;;;;;4.83;3.00;;;24.60;99.90;;;;;;5039184;28;20732;-58
2022/07/08 09:56:08;;;;;;;13.63;3.43;;;23.90;99.90;;;;;;5039161;28;20678;-54
2022/07/08 09:58:36;;;;;;;4.77;2.87;;;23.90;99.90;;;;;;5039024;28;20621;-56
2022/07/08 10:01:04;;;;;;;9.03;3.43;;;24.40;99.90;;;;;;5038738;28;20663;-54
2022/07/08 10:03:32;;;;;;;4.67;2.30;;;24.30;99.90;;;;;;5039133;28;20404;-57
2022/07/08 10:06:01;;;;;;;4.47;2.27;;;24.40;99.90;;;;;;5038831;28;20404;-56
2022/07/08 10:08:29;;;;;;;4.23;2.70;;;24.20;99.90;;;;;;5039262;28;20430;-58
2022/07/08 10:10:58;;;;;;;7.73;3.00;;;23.80;99.90;;;;;;5038545;28;20427;-57
2022/07/08 10:13:32;;;;;;;6.13;3.17;;;23.50;99.90;;;;;;5038867;28;20735;-57
2022/07/08 10:16:02;;;;;;;6.60;2.63;;;23.30;99.90;;;;;;5021996;28;20475;-58
2022/07/08 10:18:37;;;;;;;5.07;2.73;;;23.00;99.90;;;;;;5039618;28;20432;-54
2022/07/08 10:21:07;;;;;;;5.13;3.10;;;22.60;99.90;;;;;;5021705;28;20507;-55
2022/07/08 10:23:45;;;;;;;4.60;2.60;;;22.60;99.90;;;;;;5039247;28;20454;-57
2022/07/08 10:26:13;;;;;;;5.63;2.80;;;22.50;99.90;;;;;;5039707;28;20452;-55
2022/07/08 10:28:41;;;;;;;4.53;2.50;;;22.70;99.90;;;;;;5039651;28;20411;-56
2022/07/08 10:31:20;;;;;;;3.10;1.97;;;22.90;99.90;;;;;;5039069;28;20453;-56
2022/07/08 10:33:50;;;;;;;3.70;2.60;;;22.80;99.90;;;;;;5021897;28;20495;-56
2022/07/08 10:36:20;;;;;;;7.30;2.63;;;22.50;99.90;;;;;;5039276;28;20484;-56
2022/07/08 10:38:48;;;;;;;2.17;2.07;;;22.70;99.90;;;;;;5039523;28;20425;-56
2022/07/08 10:41:20;;;;;;;2.10;1.93;;;23.10;99.90;;;;;;5038777;28;20438;-56
2022/07/08 10:43:57;;;;;;;3.60;2.17;;;23.30;99.90;;;;;;5039875;28;20404;-56
2022/07/08 10:46:25;;;;;;;2.37;2.17;;;23.40;99.90;;;;;;5038656;28;20466;-58
2022/07/08 10:48:55;;;;;;;2.17;1.97;;;23.30;99.90;;;;;;5039058;28;20412;-54
2022/07/08 10:51:25;;;;;;;1.93;1.80;;;23.20;99.90;;;;;;5038667;28;20421;-53
2022/07/08 10:54:09;;;;;;;2.60;1.70;;;22.60;99.90;;;;;;5038412;28;20408;-55
2022/07/08 10:56:49;;;;;;;5.70;2.63;;;22.20;99.90;;;;;;5038068;28;20411;-57
2022/07/08 10:59:29;;;;;;;7.47;2.73;;;21.80;99.90;;;;;;5038610;28;20471;-57
2022/07/08 11:02:01;;;;;;;2.70;2.50;;;21.50;99.90;;;;;;5041246;28;20438;-57
2022/07/08 11:04:34;;;;;;;4.77;2.17;;;21.40;99.90;;;;;;5042311;28;20441;-56
2022/07/08 11:07:17;;;;;;;2.90;2.70;;;21.50;99.90;;;;;;5041995;28;20506;-56
2022/07/08 11:09:46;;;;;;;3.03;2.10;;;21.30;99.90;;;;;;5042232;28;20434;-57
2022/07/08 11:12:21;;;;;;;3.20;1.40;;;21.20;99.90;;;;;;5041945;28;20474;-57
2022/07/08 11:14:50;;;;;;;2.30;2.10;;;21.30;99.90;;;;;;5042477;28;20441;-55
2022/07/08 11:17:19;;;;;;;3.87;2.37;;;21.40;99.90;;;;;;5041911;28;20769;-58
2022/07/08 11:19:48;;;;;;;2.43;2.23;;;21.70;99.90;;;;;;5042054;28;20826;-54
2022/07/08 11:22:16;;;;;;;3.63;1.80;;;21.50;99.90;;;;;;5041828;28;20444;-55
2022/07/08 11:24:54;;;;;;;4.97;2.47;;;21.40;99.90;;;;;;5042151;28;20417;-55
2022/07/08 11:27:26;;;;;;;4.43;2.60;;;21.30;99.90;;;;;;5041850;28;20469;-56
2022/07/08 11:29:54;;;;;;;3.60;1.93;;;21.00;99.90;;;;;;5041942;28;20779;-57
2022/07/08 11:32:24;;;;;;;4.13;2.33;;;20.60;99.90;;;;;;5042340;28;20632;-56
2022/07/08 11:34:53;;;;;;;2.77;2.00;;;20.50;99.90;;;;;;5041817;28;20409;-58
2022/07/08 11:37:21;;;;;;;4.40;2.20;;;20.70;99.90;;;;;;5041836;28;20657;-56
2022/07/08 11:39:52;;;;;;;2.33;1.90;;;21.00;99.90;;;;;;5041366;28;20533;-56
2022/07/08 11:42:19;;;;;;;3.37;2.10;;;21.20;99.90;;;;;;5041523;28;20587;-57
2022/07/08 11:44:51;;;;;;;2.20;1.80;;;21.30;99.90;;;;;;5040854;28;20408;-55
2022/07/08 11:47:22;;;;;;;1.63;1.50;;;21.50;99.90;;;;;;5041435;28;20492;-55
2022/07/08 11:49:50;;;;;;;2.10;1.63;;;21.90;99.90;;;;;;5041213;28;20658;-55
2022/07/08 11:52:18;;;;;;;3.57;1.50;;;22.00;99.90;;;;;;5041393;28;20463;-55
2022/07/08 11:54:47;;;;;;;4.80;1.50;;;21.90;99.90;;;;;;5041235;28;20811;-57
2022/07/08 11:57:15;;;;;;;0.90;0.90;;;21.90;99.90;;;;;;5041776;28;20626;-57
2022/07/08 11:59:44;;;;;;;2.50;1.43;;;21.70;99.90;;;;;;5041068;28;20529;-58
2022/07/08 12:02:14;;;;;;;1.30;1.20;;;21.70;99.90;;;;;;5041477;28;20432;-58
2022/07/08 12:04:46;;;;;;;2.57;2.37;;;21.90;99.90;;;;;;5041376;28;20430;-55
2022/07/08 12:07:27;;;;;;;0.87;0.87;;;22.10;99.90;;;;;;5023709;28;20512;-58
2022/07/08 12:10:05;;;;;;;2.07;1.20;;;22.40;99.90;;;;;;5040906;28;20494;-54
2022/07/08 12:12:34;;;;;;;1.20;1.10;;;22.70;99.90;;;;;;5039756;28;20440;-56
2022/07/08 12:15:16;;;;;;;3.50;1.80;;;22.90;99.90;;;;;;5040861;28;20801;-57
2022/07/08 12:17:59;;;;;;;1.40;1.27;;;22.70;99.90;;;;;;5040521;28;20430;-54
2022/07/08 12:20:34;;;;;;;1.53;1.43;;;22.70;99.90;;;;;;5040616;28;20485;-53
2022/07/08 12:23:02;;;;;;;3.13;1.70;;;22.80;99.90;;;;;;5041565;28;20416;-56
2022/07/08 12:25:47;;;;;;;1.53;1.10;;;22.90;99.90;;;;;;5041122;28;20429;-54
2022/07/08 12:28:22;;;;;;;4.00;1.43;;;23.00;99.90;;;;;;5041372;28;20404;-57
2022/07/08 12:30:49;;;;;;;1.73;1.63;;;23.20;99.90;;;;;;5040929;28;20450;-57
2022/07/08 12:33:27;;;;;;;1.50;1.10;;;23.30;99.90;;;;;;5042235;28;20435;-57
2022/07/08 12:35:55;;;;;;;1.63;1.53;;;23.30;99.90;;;;;;5048168;28;20431;-59
2022/07/08 12:38:28;;;;;;;1.87;0.93;;;23.40;99.90;;;;;;5048076;28;20477;-58
2022/07/08 12:40:55;;;;;;;1.70;1.60;;;24.00;99.90;;;;;;5047720;28;20477;-56
2022/07/08 12:43:31;;;;;;;1.43;1.20;;;24.60;99.90;;;;;;5048863;28;20454;-58
2022/07/08 12:45:59;;;;;;;4.30;1.33;;;25.00;99.90;;;;;;5049114;28;20428;-59
2022/07/08 12:48:26;;;;;;;1.00;1.00;;;25.10;99.90;;;;;;5048897;28;20522;-58
2022/07/08 12:50:59;;;;;;;1.30;1.20;;;25.00;99.90;;;;;;5045375;28;20547;-57
2022/07/08 12:53:27;;;;;;;4.33;1.30;;;24.80;99.90;;;;;;5040157;28;20442;-57
2022/07/08 12:55:55;;;;;;;2.80;1.10;;;24.80;99.90;;;;;;5040321;28;20408;-57
2022/07/08 12:58:24;;;;;;;6.73;1.67;;;24.80;99.90;;;;;;5040134;28;20409;-57
2022/07/08 13:00:52;;;;;;;2.00;1.80;;;24.80;99.90;;;;;;5040188;28;20704;-58